Time;durP1;ratioP1;P1;durP2;ratioP2;P2;SDS_P1;SDS_P2;PMS_P1;PMS_P2;Temp;Humidity;BMP_temperature;BMP_pressure;BME280_temperature;BME280_humidity;BME280_pressure;Samples;Min_cycle;Max_cycle;Signal;HPM_P1;HPM_P2
2022/04/28 00:00:01;;;;;;;9.95;7.75;;;9.00;96.50;;;;;;4993067;28;20026;-90
2022/04/28 00:02:26;;;;;;;10.45;7.53;;;8.90;96.50;;;;;;5004845;28;20018;-90
2022/04/28 00:04:52;;;;;;;10.10;7.55;;;8.90;96.50;;;;;;4995806;28;20027;-90
2022/04/28 00:07:18;;;;;;;9.48;7.22;;;8.90;96.60;;;;;;5027322;28;20071;-90
2022/04/28 00:09:43;;;;;;;9.10;7.53;;;8.80;96.70;;;;;;4988761;28;20141;-90
2022/04/28 00:12:10;;;;;;;11.48;7.30;;;8.80;96.80;;;;;;5026489;28;20518;-91
2022/04/28 00:14:37;;;;;;;9.95;7.70;;;8.80;96.80;;;;;;5014266;28;20030;-91
2022/04/28 00:17:03;;;;;;;9.73;7.72;;;8.80;96.90;;;;;;5006051;28;20134;-91
2022/04/28 00:19:29;;;;;;;10.40;7.63;;;8.70;96.90;;;;;;5000513;28;20034;-91
2022/04/28 00:21:54;;;;;;;11.05;7.30;;;8.70;96.90;;;;;;5011807;28;20022;-91
2022/04/28 00:24:20;;;;;;;10.20;7.68;;;8.70;97.00;;;;;;5000814;28;20030;-91
2022/04/28 00:26:45;;;;;;;10.43;7.50;;;8.70;97.20;;;;;;5010720;28;20026;-91
2022/04/28 00:29:11;;;;;;;9.57;7.75;;;8.70;97.20;;;;;;5016429;28;20030;-91
2022/04/28 00:31:37;;;;;;;10.60;7.35;;;8.60;97.20;;;;;;5012563;28;20026;-92
2022/04/28 00:34:03;;;;;;;12.65;7.85;;;8.60;97.30;;;;;;5000460;28;20143;-91
2022/04/28 00:36:29;;;;;;;8.98;7.70;;;8.60;97.40;;;;;;4996479;28;20053;-91
2022/04/28 00:38:54;;;;;;;10.57;8.02;;;8.50;97.40;;;;;;5010126;28;20459;-91
2022/04/28 00:41:20;;;;;;;8.73;7.35;;;8.50;97.40;;;;;;5017929;28;20117;-91
2022/04/28 00:43:51;;;;;;;8.60;7.40;;;8.50;97.40;;;;;;5024787;28;20036;-91
2022/04/28 00:46:21;;;;;;;9.45;7.57;;;8.40;97.60;;;;;;5014255;28;20075;-91
2022/04/28 00:51:33;;;;;;;10.45;7.68;;;8.40;97.60;;;;;;5018252;28;20120;-90
2022/04/28 00:54:00;;;;;;;9.82;7.43;;;8.40;97.60;;;;;;5002223;28;20025;-90
2022/04/28 00:56:30;;;;;;;9.65;7.35;;;8.30;97.60;;;;;;5012317;28;20090;-91
2022/04/28 00:58:58;;;;;;;10.48;7.78;;;8.30;97.70;;;;;;5009680;28;20056;-90
2022/04/28 01:01:24;;;;;;;11.23;7.40;;;8.30;97.70;;;;;;5021739;28;20097;-90
2022/04/28 01:03:49;;;;;;;11.05;7.90;;;8.20;97.80;;;;;;4999550;28;20057;-90
2022/04/28 01:06:16;;;;;;;8.65;7.53;;;8.20;97.90;;;;;;4996154;28;20030;-90
2022/04/28 01:08:42;;;;;;;10.00;7.90;;;8.10;97.90;;;;;;5013778;28;20097;-91
2022/04/28 01:11:08;;;;;;;9.70;7.82;;;8.10;97.90;;;;;;5000292;28;20118;-91
2022/04/28 01:13:34;;;;;;;10.18;7.45;;;8.10;98.00;;;;;;5016162;28;20042;-91
2022/04/28 01:16:00;;;;;;;9.77;7.38;;;8.10;98.00;;;;;;4993441;28;20050;-90
2022/04/28 01:18:25;;;;;;;8.88;7.65;;;8.10;98.10;;;;;;5012519;28;20208;-90
2022/04/28 01:20:51;;;;;;;10.40;7.47;;;8.00;98.20;;;;;;4993417;28;20057;-90
2022/04/28 01:23:18;;;;;;;11.25;8.18;;;8.00;98.30;;;;;;4995768;28;20035;-91
2022/04/28 01:25:44;;;;;;;11.05;7.80;;;8.00;98.20;;;;;;4987793;28;20026;-91
2022/04/28 01:28:10;;;;;;;10.25;7.28;;;7.90;98.20;;;;;;4997798;28;20026;-91
2022/04/28 01:30:37;;;;;;;10.88;7.15;;;7.90;98.20;;;;;;4999090;28;20030;-90
2022/04/28 01:33:03;;;;;;;8.93;7.53;;;7.90;98.20;;;;;;4997411;28;20041;-91
2022/04/28 01:35:29;;;;;;;13.38;7.70;;;7.90;98.30;;;;;;5001821;28;20029;-91
2022/04/28 01:37:55;;;;;;;9.15;7.47;;;7.90;98.30;;;;;;5002151;28;20037;-91
2022/04/28 01:40:21;;;;;;;9.60;7.50;;;7.80;98.30;;;;;;4998888;28;20045;-91
2022/04/28 01:42:47;;;;;;;9.00;7.50;;;7.80;98.30;;;;;;5001503;28;20033;-91
2022/04/28 01:45:14;;;;;;;11.32;7.30;;;7.80;98.40;;;;;;5001044;28;20101;-91
2022/04/28 01:47:41;;;;;;;10.50;7.47;;;7.70;98.40;;;;;;5010693;28;20093;-91
2022/04/28 01:50:09;;;;;;;12.35;7.80;;;7.70;98.40;;;;;;5014450;28;20037;-91
2022/04/28 01:55:20;;;;;;;11.38;7.80;;;7.60;98.60;;;;;;5031349;28;20061;-90
2022/04/28 01:57:46;;;;;;;9.80;7.63;;;7.60;98.60;;;;;;5027318;28;20017;-90
2022/04/28 02:00:12;;;;;;;8.95;7.07;;;7.60;98.60;;;;;;5022421;28;20398;-90
2022/04/28 02:02:38;;;;;;;9.23;6.65;;;7.60;98.60;;;;;;5006468;28;20474;-91
2022/04/28 02:05:04;;;;;;;9.80;7.28;;;7.60;98.60;;;;;;5003379;28;20026;-89
2022/04/28 02:07:30;;;;;;;12.00;7.68;;;7.50;98.60;;;;;;5005426;28;20112;-90
2022/04/28 02:09:56;;;;;;;9.98;7.68;;;7.50;98.70;;;;;;5010076;28;20021;-91
2022/04/28 02:12:24;;;;;;;11.95;7.47;;;7.50;98.80;;;;;;5005485;28;20029;-91
2022/04/28 02:14:50;;;;;;;10.27;8.00;;;7.50;98.90;;;;;;5006531;28;20026;-90
2022/04/28 02:17:18;;;;;;;10.57;8.07;;;7.50;98.90;;;;;;5004476;28;20072;-91
2022/04/28 02:19:43;;;;;;;11.57;7.65;;;7.40;98.90;;;;;;4999193;28;20014;-90
2022/04/28 02:22:09;;;;;;;10.00;7.63;;;7.40;98.90;;;;;;5002414;28;20124;-90
2022/04/28 02:24:35;;;;;;;9.25;7.68;;;7.40;99.00;;;;;;5022885;28;20037;-89
2022/04/28 02:27:00;;;;;;;10.95;8.10;;;7.40;99.00;;;;;;5029800;28;20031;-89
2022/04/28 02:29:26;;;;;;;12.70;8.70;;;7.40;99.00;;;;;;5019173;28;20018;-90
2022/04/28 02:31:51;;;;;;;10.20;7.80;;;7.40;99.00;;;;;;5006713;28;20034;-90
2022/04/28 02:34:17;;;;;;;12.82;8.20;;;7.30;99.10;;;;;;5003941;28;20026;-88
2022/04/28 02:36:43;;;;;;;10.07;7.97;;;7.30;99.00;;;;;;5011729;28;20034;-90
2022/04/28 02:39:09;;;;;;;9.77;7.57;;;7.30;98.90;;;;;;5005192;28;20041;-89
2022/04/28 02:41:36;;;;;;;10.50;8.13;;;7.20;99.00;;;;;;5001188;28;20041;-90
2022/04/28 02:44:02;;;;;;;9.80;8.25;;;7.20;99.40;;;;;;5018830;28;20026;-89
2022/04/28 02:46:29;;;;;;;10.02;7.85;;;7.20;99.30;;;;;;5011874;28;20036;-89
2022/04/28 02:48:54;;;;;;;10.32;8.07;;;7.20;99.20;;;;;;5013639;28;20022;-89
2022/04/28 02:51:20;;;;;;;11.13;8.48;;;7.20;99.20;;;;;;4994772;28;20040;-90
2022/04/28 02:53:45;;;;;;;13.07;8.73;;;7.10;99.20;;;;;;5009823;28;20030;-89
2022/04/28 02:56:11;;;;;;;11.23;9.20;;;7.10;99.20;;;;;;5015434;28;20029;-90
2022/04/28 02:58:37;;;;;;;13.00;9.90;;;7.10;99.30;;;;;;5022329;28;20026;-90
2022/04/28 03:01:03;;;;;;;12.23;8.90;;;7.10;99.30;;;;;;4998138;28;20049;-89
2022/04/28 03:11:25;;;;;;;11.57;8.82;;;6.90;99.40;;;;;;5012873;28;20552;-87
2022/04/28 03:13:51;;;;;;;11.70;8.27;;;6.90;99.40;;;;;;4980860;28;20122;-87
2022/04/28 03:16:17;;;;;;;13.48;8.65;;;6.90;99.40;;;;;;4977301;28;20035;-88
2022/04/28 03:18:44;;;;;;;10.75;8.23;;;6.90;99.50;;;;;;4976930;28;20015;-87
2022/04/28 03:21:13;;;;;;;10.68;8.40;;;6.90;99.50;;;;;;4977343;28;20019;-87
2022/04/28 03:23:39;;;;;;;11.05;8.95;;;6.80;99.60;;;;;;4993515;28;20022;-87
2022/04/28 03:26:05;;;;;;;10.75;8.35;;;6.80;99.50;;;;;;5000888;28;20030;-87
2022/04/28 03:28:34;;;;;;;12.68;8.63;;;6.80;99.60;;;;;;4975773;28;20022;-86
2022/04/28 03:31:01;;;;;;;13.38;8.45;;;6.80;99.60;;;;;;5001112;28;20050;-87
2022/04/28 03:33:27;;;;;;;10.68;8.00;;;6.80;99.60;;;;;;4987750;28;20479;-87
2022/04/28 03:35:53;;;;;;;10.90;8.52;;;6.70;99.60;;;;;;4976607;28;20533;-86
2022/04/28 03:38:19;;;;;;;11.43;8.30;;;6.70;99.60;;;;;;4982824;28;20026;-87
2022/04/28 03:40:45;;;;;;;11.57;8.20;;;6.60;99.60;;;;;;4964645;28;20026;-87
2022/04/28 03:43:11;;;;;;;12.18;8.20;;;6.60;99.60;;;;;;4973924;28;20110;-87
2022/04/28 03:45:37;;;;;;;11.45;8.35;;;6.50;99.70;;;;;;4991417;28;20041;-87
2022/04/28 03:48:03;;;;;;;11.30;7.30;;;6.50;99.80;;;;;;4983965;28;20037;-87
2022/04/28 03:50:30;;;;;;;9.95;7.90;;;6.50;99.80;;;;;;4978224;28;20030;-87
2022/04/28 03:52:57;;;;;;;9.88;7.43;;;6.50;99.80;;;;;;4969052;28;20090;-86
2022/04/28 03:55:23;;;;;;;11.75;7.95;;;6.50;99.80;;;;;;4970155;28;20030;-87
2022/04/28 03:57:49;;;;;;;12.15;8.32;;;6.40;99.70;;;;;;4982267;28;20660;-87
2022/04/28 04:00:15;;;;;;;10.30;8.18;;;6.40;99.70;;;;;;4972513;28;20030;-88
2022/04/28 04:02:41;;;;;;;9.43;7.75;;;6.30;99.70;;;;;;4972451;28;20022;-87
2022/04/28 04:05:07;;;;;;;11.25;8.00;;;6.30;99.80;;;;;;4973677;28;20061;-87
2022/04/28 04:07:34;;;;;;;10.52;7.72;;;6.30;99.90;;;;;;4974346;28;20022;-87
2022/04/28 04:09:59;;;;;;;14.57;9.43;;;6.20;99.90;;;;;;4987209;28;20022;-87
2022/04/28 04:12:26;;;;;;;16.75;10.05;;;6.20;99.90;;;;;;4965711;28;20089;-87
2022/04/28 04:14:54;;;;;;;15.20;9.68;;;6.20;99.90;;;;;;4977867;28;20026;-88
2022/04/28 04:17:20;;;;;;;15.27;10.07;;;6.20;99.90;;;;;;4981773;28;20030;-87
2022/04/28 04:19:46;;;;;;;14.40;10.30;;;6.20;99.90;;;;;;4987122;28;20054;-86
2022/04/28 04:22:12;;;;;;;15.60;10.00;;;6.20;99.90;;;;;;4971773;28;20421;-87
2022/04/28 04:24:37;;;;;;;15.88;9.85;;;6.20;99.90;;;;;;4982986;28;20022;-87
2022/04/28 04:27:03;;;;;;;16.10;9.57;;;6.20;99.90;;;;;;4972527;28;20060;-86
2022/04/28 04:29:29;;;;;;;11.57;8.82;;;6.20;99.90;;;;;;4977914;28;20057;-87
2022/04/28 04:34:39;;;;;;;16.10;9.73;;;6.30;99.90;;;;;;4991752;28;20490;-86
2022/04/28 04:37:04;;;;;;;14.95;8.90;;;6.30;99.90;;;;;;4967214;28;20026;-86
2022/04/28 04:39:30;;;;;;;13.32;7.97;;;6.30;99.90;;;;;;4970320;28;20025;-87
2022/04/28 04:41:56;;;;;;;10.85;8.15;;;6.30;99.90;;;;;;4989308;28;20018;-87
2022/04/28 04:44:22;;;;;;;12.07;8.20;;;6.30;99.90;;;;;;4980808;28;20507;-88
2022/04/28 04:46:48;;;;;;;9.10;7.70;;;6.30;99.90;;;;;;4984019;28;20042;-88
2022/04/28 04:49:13;;;;;;;11.10;7.25;;;6.40;99.90;;;;;;4982691;28;20062;-87
2022/04/28 04:51:39;;;;;;;14.85;7.20;;;6.40;99.90;;;;;;4976546;28;20031;-87
2022/04/28 04:54:05;;;;;;;13.32;7.70;;;6.40;99.90;;;;;;4977439;28;20142;-86
2022/04/28 04:56:30;;;;;;;9.05;7.75;;;6.50;99.90;;;;;;4964451;28;20037;-88
2022/04/28 04:58:56;;;;;;;10.82;7.30;;;6.60;99.90;;;;;;4973881;28;20030;-88
2022/04/28 05:01:21;;;;;;;9.40;6.93;;;6.60;99.90;;;;;;4966833;28;20038;-87
2022/04/28 05:03:47;;;;;;;9.80;7.10;;;6.70;99.90;;;;;;4985613;28;20034;-88
2022/04/28 05:06:12;;;;;;;13.93;7.68;;;6.80;99.90;;;;;;4970314;28;20125;-87
2022/04/28 05:08:38;;;;;;;10.25;7.45;;;6.90;99.90;;;;;;4989815;28;20085;-88
2022/04/28 05:11:04;;;;;;;10.20;7.22;;;7.00;99.90;;;;;;4962172;28;20093;-86
2022/04/28 05:13:29;;;;;;;11.75;8.32;;;7.10;99.90;;;;;;4962830;28;20491;-87
2022/04/28 05:15:55;;;;;;;10.05;7.78;;;7.20;99.90;;;;;;4969759;28;20030;-87
2022/04/28 05:18:21;;;;;;;11.43;7.97;;;7.30;99.90;;;;;;4982273;28;20207;-87
2022/04/28 05:20:48;;;;;;;13.57;8.38;;;7.40;99.90;;;;;;4980557;28;20019;-88
2022/04/28 05:23:13;;;;;;;17.63;9.15;;;7.50;99.90;;;;;;4971047;28;20018;-87
2022/04/28 05:25:40;;;;;;;12.45;8.85;;;7.60;99.90;;;;;;4984201;28;20030;-88
2022/04/28 05:28:05;;;;;;;14.75;8.45;;;7.70;99.90;;;;;;4984069;28;20029;-87
2022/04/28 05:30:31;;;;;;;10.98;8.52;;;7.80;99.90;;;;;;4978485;28;20035;-88
2022/04/28 05:32:56;;;;;;;15.80;9.43;;;7.90;99.90;;;;;;4988225;28;20093;-89
2022/04/28 05:35:22;;;;;;;12.10;8.73;;;8.10;99.90;;;;;;4968782;28;20022;-88
2022/04/28 05:37:48;;;;;;;10.73;8.35;;;8.20;99.90;;;;;;4967939;28;20603;-87
2022/04/28 05:40:15;;;;;;;14.73;9.88;;;8.30;99.90;;;;;;4985004;28;20470;-88
2022/04/28 05:48:12;;;;;;;13.18;9.13;;;8.70;99.90;;;;;;4990112;28;20184;-87
2022/04/28 05:50:39;;;;;;;12.55;9.07;;;8.70;99.90;;;;;;4974968;28;20033;-88
2022/04/28 05:53:04;;;;;;;13.82;9.35;;;8.80;99.90;;;;;;4988547;28;20491;-88
2022/04/28 05:55:30;;;;;;;11.30;8.88;;;8.90;99.90;;;;;;4985021;28;20033;-88
2022/04/28 05:57:59;;;;;;;12.05;9.05;;;8.90;99.90;;;;;;4967219;28;20018;-87
2022/04/28 06:00:26;;;;;;;11.90;8.82;;;9.00;99.90;;;;;;4975134;28;20031;-87
2022/04/28 06:02:52;;;;;;;11.25;8.43;;;9.00;99.90;;;;;;5011908;28;20018;-88
2022/04/28 06:05:18;;;;;;;12.93;8.80;;;9.10;99.90;;;;;;4980748;28;20046;-87
2022/04/28 06:07:44;;;;;;;15.15;8.90;;;9.10;99.90;;;;;;4981972;28;20022;-87
2022/04/28 06:10:09;;;;;;;10.77;9.07;;;9.20;99.90;;;;;;4966765;28;20103;-87
2022/04/28 06:12:35;;;;;;;12.48;9.32;;;9.30;99.90;;;;;;4970451;28;20030;-87
2022/04/28 06:15:02;;;;;;;11.50;8.95;;;9.40;99.90;;;;;;4963933;28;20048;-87
2022/04/28 06:17:27;;;;;;;11.63;9.25;;;9.50;99.90;;;;;;4969927;28;20117;-87
2022/04/28 06:19:53;;;;;;;11.80;9.20;;;9.60;99.90;;;;;;4967853;28;20046;-87
2022/04/28 06:22:18;;;;;;;11.90;9.15;;;9.70;99.90;;;;;;4980986;28;20031;-87
2022/04/28 06:24:44;;;;;;;15.38;9.55;;;9.80;99.90;;;;;;4965149;28;20035;-87
2022/04/28 06:27:09;;;;;;;11.48;9.07;;;9.80;99.90;;;;;;4965002;28;20030;-87
2022/04/28 06:29:35;;;;;;;10.43;9.10;;;9.80;99.90;;;;;;4968278;28;20033;-87
2022/04/28 06:32:01;;;;;;;12.65;8.82;;;9.80;99.90;;;;;;4987622;28;20026;-87
2022/04/28 06:34:26;;;;;;;12.90;8.80;;;9.80;99.90;;;;;;4971585;28;20027;-87
2022/04/28 06:36:52;;;;;;;15.02;9.50;;;9.80;99.90;;;;;;4989803;28;20482;-88
2022/04/28 06:39:17;;;;;;;12.65;9.70;;;9.90;99.90;;;;;;4977544;28;20030;-88
2022/04/28 06:41:43;;;;;;;10.98;8.98;;;10.10;99.90;;;;;;4969932;28;20025;-88
2022/04/28 06:44:08;;;;;;;13.38;9.25;;;10.40;99.90;;;;;;4968611;28;20122;-88
2022/04/28 06:46:34;;;;;;;11.43;8.80;;;10.60;99.90;;;;;;4966939;28;20085;-88
2022/04/28 06:48:59;;;;;;;12.48;8.45;;;10.90;99.90;;;;;;4982408;28;20027;-87
2022/04/28 06:51:25;;;;;;;16.02;8.68;;;11.20;99.90;;;;;;4994742;28;20534;-88
2022/04/28 06:53:51;;;;;;;12.20;8.35;;;11.50;99.90;;;;;;4976707;28;20263;-87
2022/04/28 06:56:17;;;;;;;10.13;7.78;;;11.70;99.90;;;;;;4983147;28;20118;-87
2022/04/28 06:58:43;;;;;;;11.88;7.95;;;12.00;99.90;;;;;;4971416;28;20034;-86
2022/04/28 07:01:08;;;;;;;15.35;8.13;;;12.30;99.90;;;;;;4969005;28;20027;-87
2022/04/28 07:03:34;;;;;;;11.25;7.88;;;12.50;99.90;;;;;;4981023;28;20036;-87
2022/04/28 07:06:00;;;;;;;10.02;7.53;;;12.70;99.90;;;;;;4981474;28;20427;-86
2022/04/28 07:08:26;;;;;;;9.85;7.47;;;12.90;99.80;;;;;;4971582;28;20030;-88
2022/04/28 07:10:51;;;;;;;10.70;7.45;;;13.20;99.50;;;;;;4966084;28;20031;-85
2022/04/28 07:13:17;;;;;;;9.20;7.32;;;13.40;99.40;;;;;;4993598;28;20030;-86
2022/04/28 07:15:43;;;;;;;9.98;7.30;;;13.70;99.30;;;;;;4997604;28;20105;-86
2022/04/28 07:18:09;;;;;;;8.75;6.90;;;14.00;99.10;;;;;;4993523;28;20069;-86
2022/04/28 07:20:35;;;;;;;9.07;7.05;;;14.30;98.80;;;;;;4977914;28;20025;-86
2022/04/28 07:23:01;;;;;;;7.95;6.63;;;14.60;98.50;;;;;;4968728;28;20027;-86
2022/04/28 07:25:27;;;;;;;10.75;7.00;;;14.90;98.10;;;;;;4980464;28;20021;-86
2022/04/28 07:27:54;;;;;;;10.38;6.57;;;15.30;97.70;;;;;;4981581;28;20053;-86
2022/04/28 07:30:20;;;;;;;6.82;6.07;;;15.60;97.30;;;;;;4996220;28;20062;-87
2022/04/28 07:32:48;;;;;;;8.25;6.50;;;15.90;97.00;;;;;;5000011;28;20022;-86
2022/04/28 07:35:14;;;;;;;7.90;5.97;;;16.20;96.80;;;;;;4977092;28;20034;-87
2022/04/28 07:37:39;;;;;;;7.78;5.80;;;16.50;96.40;;;;;;5001545;28;20105;-87
2022/04/28 07:40:05;;;;;;;6.93;6.13;;;16.90;95.90;;;;;;4988607;28;20490;-86
2022/04/28 07:42:33;;;;;;;7.57;6.32;;;17.20;95.40;;;;;;4966089;28;20030;-90
2022/04/28 07:44:59;;;;;;;9.73;6.00;;;17.50;95.20;;;;;;4995595;28;20025;-89
2022/04/28 07:47:26;;;;;;;38.38;23.52;;;17.70;94.90;;;;;;5006793;28;20030;-88
2022/04/28 07:49:52;;;;;;;8.07;6.68;;;17.90;94.40;;;;;;4992491;28;20397;-88
2022/04/28 07:52:18;;;;;;;6.93;5.95;;;18.20;93.70;;;;;;4990432;28;20117;-89
2022/04/28 07:54:43;;;;;;;9.27;5.93;;;18.50;93.30;;;;;;4989109;28;20022;-89
2022/04/28 07:57:09;;;;;;;8.23;5.60;;;18.70;92.70;;;;;;4994926;28;20034;-90
2022/04/28 07:59:35;;;;;;;7.72;5.80;;;19.00;92.50;;;;;;4984371;28;20034;-90
2022/04/28 08:02:03;;;;;;;7.95;5.35;;;19.30;91.70;;;;;;4993026;28;20029;-90
2022/04/28 08:04:29;;;;;;;6.78;5.88;;;19.50;90.90;;;;;;4988929;28;20490;-89
2022/04/28 08:06:55;;;;;;;5.85;5.30;;;19.70;90.60;;;;;;4988974;28;20030;-91
2022/04/28 08:09:21;;;;;;;11.20;5.60;;;20.00;90.30;;;;;;4963242;28;20558;-88
2022/04/28 08:11:46;;;;;;;6.63;5.90;;;20.30;89.60;;;;;;4998957;28;20044;-88
2022/04/28 08:14:12;;;;;;;7.63;5.35;;;20.50;87.80;;;;;;4998030;28;20034;-88
2022/04/28 08:16:38;;;;;;;8.10;5.50;;;20.80;86.80;;;;;;4980131;28;20121;-89
2022/04/28 08:19:04;;;;;;;6.40;5.05;;;21.00;84.90;;;;;;4976991;28;20049;-91
2022/04/28 08:21:29;;;;;;;6.47;5.07;;;21.20;84.00;;;;;;4989246;28;20511;-90
2022/04/28 08:23:55;;;;;;;5.70;5.10;;;21.30;83.00;;;;;;4966522;28;20041;-90
2022/04/28 08:26:21;;;;;;;6.13;5.22;;;21.70;82.30;;;;;;4969756;28;20031;-90
2022/04/28 08:28:47;;;;;;;6.22;5.10;;;22.10;80.90;;;;;;4984866;28;20025;-90
2022/04/28 08:31:12;;;;;;;7.32;5.22;;;22.40;78.60;;;;;;4994985;28;20534;-90
2022/04/28 08:33:38;;;;;;;7.47;5.40;;;22.60;77.40;;;;;;4995897;28;20390;-91
2022/04/28 08:36:04;;;;;;;6.43;5.13;;;22.90;75.50;;;;;;4991721;28;20026;-91
2022/04/28 08:38:31;;;;;;;6.50;4.53;;;23.20;73.70;;;;;;4970569;28;20045;-92
2022/04/28 08:41:01;;;;;;;4.93;4.53;;;23.40;71.90;;;;;;4980735;28;20121;-92
2022/04/28 08:43:30;;;;;;;8.38;4.38;;;23.70;70.30;;;;;;4977452;28;20487;-92
2022/04/28 08:48:51;;;;;;;6.28;4.38;;;24.10;66.10;;;;;;4981038;28;20081;-92
2022/04/28 08:51:21;;;;;;;5.45;4.40;;;24.30;66.20;;;;;;4966203;28;20499;-92
2022/04/28 08:53:49;;;;;;;5.05;3.90;;;24.50;64.90;;;;;;4982921;28;20027;-91
2022/04/28 08:56:16;;;;;;;4.60;4.10;;;24.80;63.70;;;;;;4959967;28;20455;-91
2022/04/28 08:58:42;;;;;;;5.97;3.17;;;25.10;62.60;;;;;;4966961;28;20094;-91
2022/04/28 09:01:07;;;;;;;4.00;3.60;;;25.40;61.20;;;;;;4986663;28;20040;-90
2022/04/28 09:03:33;;;;;;;4.90;3.63;;;25.50;59.60;;;;;;4977403;28;20109;-91
2022/04/28 09:08:31;;;;;;;7.25;3.17;;;25.80;58.40;;;;;;4989317;28;20114;-87
2022/04/28 09:11:00;;;;;;;3.80;3.20;;;26.20;57.20;;;;;;4975106;28;20030;-87
2022/04/28 09:16:12;;;;;;;7.70;2.88;;;26.80;55.00;;;;;;4996580;28;20076;-87
2022/04/28 09:18:40;;;;;;;3.15;2.90;;;27.30;54.60;;;;;;4988132;28;20054;-86
2022/04/28 09:21:06;;;;;;;3.60;2.45;;;27.60;52.60;;;;;;4983244;28;20038;-87
2022/04/28 09:23:32;;;;;;;2.85;2.63;;;27.80;51.70;;;;;;4998538;28;20030;-87
2022/04/28 09:25:58;;;;;;;3.33;2.63;;;28.50;50.50;;;;;;4976186;28;20050;-87
2022/04/28 09:28:24;;;;;;;6.18;2.92;;;29.20;48.50;;;;;;4968071;28;20084;-86
2022/04/28 09:30:51;;;;;;;4.38;2.72;;;29.70;46.80;;;;;;4972027;28;20490;-86
2022/04/28 09:33:18;;;;;;;3.63;3.13;;;30.00;45.30;;;;;;4966459;28;20041;-87
2022/04/28 09:35:49;;;;;;;3.88;2.80;;;30.00;44.80;;;;;;4966790;28;20038;-88
2022/04/28 09:38:15;;;;;;;3.22;2.92;;;30.40;44.30;;;;;;4972092;28;20471;-87
2022/04/28 09:43:29;;;;;;;3.47;2.72;;;31.60;42.80;;;;;;4979535;28;20085;-88
2022/04/28 09:45:57;;;;;;;4.50;3.00;;;31.80;42.50;;;;;;4984718;28;20478;-87
2022/04/28 09:48:24;;;;;;;2.85;2.58;;;31.20;42.70;;;;;;4966867;28;20091;-86
2022/04/28 09:50:50;;;;;;;2.70;2.38;;;31.80;41.90;;;;;;4964015;28;20069;-86
2022/04/28 09:53:19;;;;;;;3.15;2.75;;;32.40;40.80;;;;;;4955644;28;20078;-86
2022/04/28 09:55:47;;;;;;;4.78;2.85;;;31.40;40.70;;;;;;4971380;28;20130;-83
2022/04/28 09:58:14;;;;;;;4.80;2.85;;;29.80;41.40;;;;;;4967200;28;20037;-87
2022/04/28 10:00:40;;;;;;;5.13;2.67;;;28.80;42.10;;;;;;4967390;28;20030;-87
2022/04/28 10:03:09;;;;;;;3.17;2.50;;;27.70;42.40;;;;;;4981674;28;20023;-87
2022/04/28 10:05:36;;;;;;;2.60;2.40;;;26.80;43.20;;;;;;4995765;28;20033;-88
2022/04/28 10:08:03;;;;;;;2.70;2.50;;;27.10;42.70;;;;;;4977557;28;20399;-87
2022/04/28 10:10:30;;;;;;;5.43;2.45;;;26.20;43.20;;;;;;4961481;28;20026;-88
2022/04/28 10:12:56;;;;;;;2.50;2.30;;;25.60;43.80;;;;;;4968446;28;20049;-89
2022/04/28 10:15:22;;;;;;;2.17;1.98;;;25.80;43.20;;;;;;4982231;28;20050;-89
2022/04/28 10:17:53;;;;;;;4.55;2.70;;;26.40;42.00;;;;;;4969482;28;20483;-89
2022/04/28 10:20:41;;;;;;;3.90;2.13;;;25.50;41.90;;;;;;4982344;28;20030;-88
2022/04/28 10:23:10;;;;;;;4.53;2.42;;;25.20;42.50;;;;;;4984282;28;20046;-90
2022/04/28 10:34:14;;;;;;;3.17;2.50;;;29.00;40.00;;;;;;4993364;28;20135;-89
2022/04/28 10:36:54;;;;;;;4.90;2.20;;;29.50;39.10;;;;;;4975697;28;20196;-90
2022/04/28 10:39:39;;;;;;;2.03;1.90;;;29.70;38.80;;;;;;4971533;28;20034;-90
2022/04/28 10:42:40;;;;;;;4.60;2.30;;;29.80;39.00;;;;;;4981214;28;20026;-89
2022/04/28 10:45:31;;;;;;;2.15;1.95;;;29.60;39.50;;;;;;4965724;28;20212;-89
2022/04/28 10:48:35;;;;;;;3.00;2.00;;;29.40;39.40;;;;;;4974322;28;20435;-89
2022/04/28 10:51:05;;;;;;;3.13;2.58;;;28.80;40.30;;;;;;4901051;29;20024;-89
2022/04/28 10:53:32;;;;;;;4.85;2.40;;;28.30;40.60;;;;;;4983306;28;20098;-89
2022/04/28 10:56:07;;;;;;;4.07;2.05;;;27.90;41.80;;;;;;5026353;28;20006;-95
2022/04/28 10:59:28;;;;;;;4.10;2.10;;;27.50;42.10;;;;;;5003697;28;20058;-93
2022/04/28 11:02:08;;;;;;;;;;;;;;;;;;;;;
2022/04/28 11:10:07;;;;;;;2.05;1.77;;;26.00;43.30;;;;;;5036368;28;20029;-87
2022/04/28 15:30:45;;;;;;;3.83;2.25;;;19.10;50.20;;;;;;5147248;22;20062;-90
2022/04/28 15:33:11;;;;;;;2.60;2.10;;;19.10;50.60;;;;;;4986031;28;20113;-89
2022/04/28 15:35:37;;;;;;;2.55;2.20;;;19.10;50.30;;;;;;4972800;28;20031;-91
2022/04/28 15:38:04;;;;;;;2.78;1.92;;;19.10;50.20;;;;;;4966854;28;20030;-91
2022/04/28 15:40:31;;;;;;;2.88;2.10;;;19.10;50.00;;;;;;4986814;28;20030;-92
2022/04/28 15:42:56;;;;;;;2.95;1.70;;;19.00;50.00;;;;;;4984460;28;20041;-92
2022/04/28 15:45:25;;;;;;;1.80;1.70;;;19.00;50.10;;;;;;5022541;28;20478;-93
2022/04/28 15:47:51;;;;;;;5.22;2.30;;;19.00;50.10;;;;;;4991701;28;20054;-92
2022/04/28 15:50:19;;;;;;;5.38;2.33;;;19.00;49.80;;;;;;4986297;28;20034;-92
2022/04/28 15:52:56;;;;;;;4.30;2.17;;;18.90;49.70;;;;;;4983044;28;20038;-94
2022/04/28 15:55:22;;;;;;;2.10;2.00;;;19.00;49.60;;;;;;4977208;28;20050;-92
2022/04/28 15:57:50;;;;;;;2.58;2.38;;;18.90;49.70;;;;;;4980062;28;20034;-93
2022/04/28 16:00:17;;;;;;;2.63;1.90;;;18.90;49.80;;;;;;4990029;28;20027;-95
2022/04/28 16:02:44;;;;;;;5.50;2.13;;;18.90;50.00;;;;;;4985876;28;20054;-92
2022/04/28 16:05:10;;;;;;;3.22;2.08;;;18.90;50.00;;;;;;4987485;28;20039;-90
2022/04/28 16:07:36;;;;;;;2.78;2.20;;;18.90;49.80;;;;;;4983158;28;20015;-87
2022/04/28 16:10:03;;;;;;;4.85;2.13;;;18.90;50.20;;;;;;4968741;28;20502;-87
2022/04/28 16:12:29;;;;;;;3.25;1.88;;;18.90;49.80;;;;;;4976015;28;20315;-85
2022/04/28 16:14:55;;;;;;;2.53;1.63;;;18.90;49.80;;;;;;4984156;28;20030;-86
2022/04/28 16:17:20;;;;;;;2.63;2.00;;;18.80;49.60;;;;;;4983866;28;20130;-84
2022/04/28 16:19:46;;;;;;;2.30;1.60;;;18.70;49.70;;;;;;4990126;28;20037;-84
2022/04/28 16:22:16;;;;;;;2.40;2.20;;;18.70;49.80;;;;;;4991499;28;20471;-87
2022/04/28 16:24:42;;;;;;;4.00;1.98;;;18.70;49.90;;;;;;4966466;28;20053;-86
2022/04/28 16:27:08;;;;;;;6.18;1.85;;;18.70;49.90;;;;;;4994281;28;20026;-87
2022/04/28 16:29:34;;;;;;;4.13;1.98;;;18.70;49.80;;;;;;4965207;28;20086;-86
2022/04/28 16:32:00;;;;;;;2.20;2.00;;;18.70;50.10;;;;;;4963205;28;20046;-86
2022/04/28 16:34:26;;;;;;;6.45;2.25;;;18.60;50.10;;;;;;4980307;28;20744;-86
2022/04/28 16:36:51;;;;;;;4.75;2.55;;;18.60;50.30;;;;;;4982933;28;20041;-87
2022/04/28 16:39:17;;;;;;;2.58;2.38;;;18.60;50.20;;;;;;4978619;28;20158;-86
2022/04/28 16:41:43;;;;;;;2.75;1.95;;;18.60;50.30;;;;;;4964710;28;20019;-86
2022/04/28 16:44:09;;;;;;;5.50;2.28;;;18.60;50.60;;;;;;4969476;28;20083;-87
2022/04/28 16:46:35;;;;;;;4.03;2.38;;;18.60;50.70;;;;;;4961369;28;20034;-86
2022/04/28 16:49:01;;;;;;;4.75;2.17;;;18.50;50.80;;;;;;4969111;28;20431;-86
2022/04/28 16:51:27;;;;;;;4.88;2.67;;;18.50;50.60;;;;;;4962197;28;20029;-86
2022/04/28 16:53:53;;;;;;;4.45;2.17;;;18.50;50.80;;;;;;4982026;28;20877;-86
2022/04/28 16:56:19;;;;;;;2.30;1.90;;;18.40;50.90;;;;;;5003082;28;20031;-87
2022/04/28 16:58:46;;;;;;;4.13;2.35;;;18.40;50.80;;;;;;4976669;28;20026;-86
2022/04/28 17:01:12;;;;;;;6.43;1.95;;;18.40;50.70;;;;;;4957555;28;20065;-86
2022/04/28 17:06:22;;;;;;;2.53;2.20;;;18.30;50.60;;;;;;4972887;28;20077;-85
2022/04/28 17:08:48;;;;;;;4.15;2.10;;;18.20;50.70;;;;;;4969000;28;20023;-85
2022/04/28 17:11:14;;;;;;;3.45;2.47;;;18.20;50.80;;;;;;4998928;28;20396;-85
2022/04/28 17:13:40;;;;;;;2.53;2.15;;;18.10;51.00;;;;;;4971819;28;20022;-86
2022/04/28 17:16:05;;;;;;;2.30;2.10;;;18.00;51.20;;;;;;4966031;28;20491;-86
2022/04/28 17:18:32;;;;;;;3.72;2.20;;;18.00;51.40;;;;;;4972781;28;20054;-86
2022/04/28 17:20:58;;;;;;;3.85;2.17;;;18.00;51.40;;;;;;4995059;28;20023;-85
2022/04/28 17:23:24;;;;;;;3.03;1.90;;;18.00;51.70;;;;;;5000586;28;20025;-86
2022/04/28 17:25:49;;;;;;;2.35;2.13;;;17.90;51.70;;;;;;4987921;28;20124;-86
2022/04/28 17:28:15;;;;;;;3.25;2.33;;;17.90;51.70;;;;;;4995357;28;20029;-87
2022/04/28 17:30:41;;;;;;;3.60;2.00;;;17.90;51.80;;;;;;4978806;28;20027;-85
2022/04/28 17:33:09;;;;;;;2.75;1.83;;;17.90;51.90;;;;;;4971336;28;20369;-87
2022/04/28 17:35:35;;;;;;;2.25;2.10;;;17.80;52.10;;;;;;4972757;28;20398;-84
2022/04/28 17:38:04;;;;;;;2.55;2.17;;;17.80;52.30;;;;;;4972506;28;20115;-86
2022/04/28 17:40:30;;;;;;;2.28;2.08;;;17.80;52.50;;;;;;4962292;28;20027;-88
2022/04/28 17:42:56;;;;;;;3.42;2.30;;;17.70;52.40;;;;;;4972442;28;20392;-88
2022/04/28 17:45:22;;;;;;;2.85;2.50;;;17.70;52.50;;;;;;4967819;28;20030;-88
2022/04/28 17:47:48;;;;;;;5.53;2.47;;;17.70;52.70;;;;;;4987865;28;20030;-87
2022/04/28 17:50:13;;;;;;;2.85;2.30;;;17.70;52.80;;;;;;4969253;28;20475;-86
2022/04/28 17:52:39;;;;;;;2.80;2.40;;;17.60;53.00;;;;;;4964636;28;20471;-85